sensor_id;sensor_type;location;lat;lon;timestamp;pressure;altitude;pressure_sealevel;temperature;humidity
76553;BME280;65395;53.168;18.156;2022-12-05T00:01:28;101840.73;;;1.95;81.40
76553;BME280;65395;53.168;18.156;2022-12-05T00:03:58;101838.00;;;1.95;81.48
76553;BME280;65395;53.168;18.156;2022-12-05T00:06:27;101838.36;;;1.94;81.36
76553;BME280;65395;53.168;18.156;2022-12-05T00:08:55;101829.98;;;1.90;81.46
76553;BME280;65395;53.168;18.156;2022-12-05T00:11:26;101830.39;;;1.91;81.44
76553;BME280;65395;53.168;18.156;2022-12-05T00:13:55;101826.45;;;1.89;81.42
76553;BME280;65395;53.168;18.156;2022-12-05T00:16:24;101823.24;;;1.89;81.32
76553;BME280;65395;53.168;18.156;2022-12-05T00:18:51;101816.02;;;1.88;81.45
76553;BME280;65395;53.168;18.156;2022-12-05T00:21:22;101809.73;;;1.87;81.43
76553;BME280;65395;53.168;18.156;2022-12-05T00:23:51;101806.64;;;1.86;81.45
76553;BME280;65395;53.168;18.156;2022-12-05T00:26:19;101802.08;;;1.84;81.47
76553;BME280;65395;53.168;18.156;2022-12-05T00:28:46;101796.23;;;1.82;81.52
76553;BME280;65395;53.168;18.156;2022-12-05T00:31:16;101797.44;;;1.83;81.43
76553;BME280;65395;53.168;18.156;2022-12-05T00:33:43;101794.20;;;1.81;81.59
76553;BME280;65395;53.168;18.156;2022-12-05T00:36:23;101788.06;;;1.79;81.50
76553;BME280;65395;53.168;18.156;2022-12-05T00:38:51;101783.83;;;1.80;81.63
76553;BME280;65395;53.168;18.156;2022-12-05T00:41:22;101788.35;;;1.80;81.40
76553;BME280;65395;53.168;18.156;2022-12-05T00:43:50;101792.23;;;1.77;81.63
76553;BME280;65395;53.168;18.156;2022-12-05T00:46:20;101801.15;;;1.75;81.61
76553;BME280;65395;53.168;18.156;2022-12-05T00:48:47;101800.55;;;1.74;81.57
76553;BME280;65395;53.168;18.156;2022-12-05T00:51:17;101801.83;;;1.74;81.63
76553;BME280;65395;53.168;18.156;2022-12-05T00:53:45;101806.27;;;1.74;81.66
76553;BME280;65395;53.168;18.156;2022-12-05T00:56:16;101805.44;;;1.77;81.73
76553;BME280;65395;53.168;18.156;2022-12-05T00:58:43;101802.95;;;1.77;81.50
76553;BME280;65395;53.168;18.156;2022-12-05T01:01:18;101802.19;;;1.76;81.48
76553;BME280;65395;53.168;18.156;2022-12-05T01:03:47;101805.99;;;1.75;81.43
76553;BME280;65395;53.168;18.156;2022-12-05T01:06:14;101803.59;;;1.74;81.49
76553;BME280;65395;53.168;18.156;2022-12-05T01:08:41;101799.99;;;1.70;81.53
76553;BME280;65395;53.168;18.156;2022-12-05T01:11:10;101798.50;;;1.69;81.64
76553;BME280;65395;53.168;18.156;2022-12-05T01:13:37;101800.35;;;1.68;81.54
76553;BME280;65395;53.168;18.156;2022-12-05T01:16:04;101798.10;;;1.68;81.51
76553;BME280;65395;53.168;18.156;2022-12-05T01:18:31;101800.59;;;1.71;81.52
76553;BME280;65395;53.168;18.156;2022-12-05T01:20:58;101800.27;;;1.74;81.53
76553;BME280;65395;53.168;18.156;2022-12-05T01:23:25;101796.46;;;1.75;81.50
76553;BME280;65395;53.168;18.156;2022-12-05T01:25:52;101796.23;;;1.74;81.33
76553;BME280;65395;53.168;18.156;2022-12-05T01:28:19;101796.75;;;1.71;81.41
76553;BME280;65395;53.168;18.156;2022-12-05T01:30:48;101792.79;;;1.69;81.50
76553;BME280;65395;53.168;18.156;2022-12-05T01:33:16;101787.99;;;1.68;81.56
76553;BME280;65395;53.168;18.156;2022-12-05T01:35:43;101781.27;;;1.69;81.49
76553;BME280;65395;53.168;18.156;2022-12-05T01:38:11;101777.36;;;1.71;81.38
76553;BME280;65395;53.168;18.156;2022-12-05T01:40:38;101773.11;;;1.71;81.37
76553;BME280;65395;53.168;18.156;2022-12-05T01:43:13;101774.73;;;1.72;81.50
76553;BME280;65395;53.168;18.156;2022-12-05T01:45:43;101774.45;;;1.70;81.55
76553;BME280;65395;53.168;18.156;2022-12-05T01:48:17;101769.04;;;1.67;81.42
76553;BME280;65395;53.168;18.156;2022-12-05T01:50:45;101767.88;;;1.64;81.47
76553;BME280;65395;53.168;18.156;2022-12-05T01:53:14;101763.91;;;1.64;81.55
76553;BME280;65395;53.168;18.156;2022-12-05T01:55:43;101762.51;;;1.64;81.40
76553;BME280;65395;53.168;18.156;2022-12-05T01:58:10;101763.28;;;1.64;81.40
76553;BME280;65395;53.168;18.156;2022-12-05T02:00:41;101757.55;;;1.63;81.57
76553;BME280;65395;53.168;18.156;2022-12-05T02:03:12;101756.16;;;1.60;81.61
76553;BME280;65395;53.168;18.156;2022-12-05T02:05:40;101762.51;;;1.58;81.56
76553;BME280;65395;53.168;18.156;2022-12-05T02:08:09;101759.00;;;1.56;81.55
76553;BME280;65395;53.168;18.156;2022-12-05T02:10:43;101763.03;;;1.54;81.62
76553;BME280;65395;53.168;18.156;2022-12-05T02:13:35;101767.07;;;1.53;81.66
76553;BME280;65395;53.168;18.156;2022-12-05T02:16:28;101770.86;;;1.55;81.64
76553;BME280;65395;53.168;18.156;2022-12-05T02:19:16;101774.98;;;1.58;81.68
76553;BME280;65395;53.168;18.156;2022-12-05T02:28:14;101770.67;;;1.59;81.53
76553;BME280;65395;53.168;18.156;2022-12-05T02:33:34;101765.83;;;1.58;81.60
76553;BME280;65395;53.168;18.156;2022-12-05T02:36:07;101770.54;;;1.56;81.71
76553;BME280;65395;53.168;18.156;2022-12-05T02:38:49;101770.83;;;1.54;81.70
76553;BME280;65395;53.168;18.156;2022-12-05T02:41:34;101766.46;;;1.54;81.62
76553;BME280;65395;53.168;18.156;2022-12-05T02:44:21;101765.75;;;1.55;81.64
76553;BME280;65395;53.168;18.156;2022-12-05T02:46:51;101770.42;;;1.58;81.77
76553;BME280;65395;53.168;18.156;2022-12-05T02:49:22;101772.90;;;1.61;81.58
76553;BME280;65395;53.168;18.156;2022-12-05T02:51:55;101774.35;;;1.60;81.48
76553;BME280;65395;53.168;18.156;2022-12-05T02:54:26;101775.58;;;1.59;81.46
76553;BME280;65395;53.168;18.156;2022-12-05T02:56:54;101776.87;;;1.60;81.66
76553;BME280;65395;53.168;18.156;2022-12-05T02:59:22;101781.14;;;1.58;81.58
76553;BME280;65395;53.168;18.156;2022-12-05T03:01:50;101781.77;;;1.59;81.58
76553;BME280;65395;53.168;18.156;2022-12-05T03:04:19;101775.86;;;1.62;81.57
76553;BME280;65395;53.168;18.156;2022-12-05T03:06:51;101771.70;;;1.63;81.47
76553;BME280;65395;53.168;18.156;2022-12-05T03:09:24;101767.95;;;1.62;81.63
76553;BME280;65395;53.168;18.156;2022-12-05T03:14:40;101752.50;;;1.60;81.51
76553;BME280;65395;53.168;18.156;2022-12-05T03:17:12;101749.27;;;1.61;81.67
76553;BME280;65395;53.168;18.156;2022-12-05T03:19:49;101746.55;;;1.61;81.51
76553;BME280;65395;53.168;18.156;2022-12-05T03:25:00;101738.14;;;1.61;81.32
76553;BME280;65395;53.168;18.156;2022-12-05T03:27:49;101736.61;;;1.63;81.50
76553;BME280;65395;53.168;18.156;2022-12-05T03:30:20;101736.56;;;1.64;81.50
76553;BME280;65395;53.168;18.156;2022-12-05T03:33:02;101742.77;;;1.63;81.22
76553;BME280;65395;53.168;18.156;2022-12-05T03:35:44;101746.57;;;1.58;81.37
76553;BME280;65395;53.168;18.156;2022-12-05T03:38:24;101743.98;;;1.53;81.63
76553;BME280;65395;53.168;18.156;2022-12-05T03:41:07;101751.12;;;1.52;81.47
76553;BME280;65395;53.168;18.156;2022-12-05T03:43:44;101748.44;;;1.53;81.55
76553;BME280;65395;53.168;18.156;2022-12-05T03:46:19;101747.11;;;1.51;81.45
76553;BME280;65395;53.168;18.156;2022-12-05T03:49:01;101746.02;;;1.51;81.48
76553;BME280;65395;53.168;18.156;2022-12-05T03:51:35;101748.79;;;1.50;81.56
76553;BME280;65395;53.168;18.156;2022-12-05T03:54:09;101747.06;;;1.47;81.56
76553;BME280;65395;53.168;18.156;2022-12-05T03:56:45;101748.59;;;1.45;81.45
76553;BME280;65395;53.168;18.156;2022-12-05T03:59:25;101749.79;;;1.45;81.54
76553;BME280;65395;53.168;18.156;2022-12-05T04:01:55;101754.98;;;1.49;81.49
76553;BME280;65395;53.168;18.156;2022-12-05T04:04:30;101756.77;;;1.53;81.52
76553;BME280;65395;53.168;18.156;2022-12-05T04:07:01;101754.79;;;1.53;81.30
76553;BME280;65395;53.168;18.156;2022-12-05T04:09:34;101753.90;;;1.51;81.48
76553;BME280;65395;53.168;18.156;2022-12-05T04:12:07;101754.19;;;1.50;81.44
76553;BME280;65395;53.168;18.156;2022-12-05T04:14:41;101754.61;;;1.49;81.55
76553;BME280;65395;53.168;18.156;2022-12-05T04:17:30;101754.50;;;1.48;81.43
76553;BME280;65395;53.168;18.156;2022-12-05T04:20:02;101756.86;;;1.51;81.37
76553;BME280;65395;53.168;18.156;2022-12-05T04:22:41;101755.46;;;1.52;81.38
76553;BME280;65395;53.168;18.156;2022-12-05T04:25:11;101753.15;;;1.54;81.35
76553;BME280;65395;53.168;18.156;2022-12-05T04:30:49;101756.35;;;1.56;81.20
76553;BME280;65395;53.168;18.156;2022-12-05T04:33:47;101754.35;;;1.54;81.02
76553;BME280;65395;53.168;18.156;2022-12-05T04:36:21;101752.75;;;1.50;81.13
76553;BME280;65395;53.168;18.156;2022-12-05T04:39:06;101750.27;;;1.45;81.26
76553;BME280;65395;53.168;18.156;2022-12-05T04:41:40;101747.74;;;1.45;81.21
76553;BME280;65395;53.168;18.156;2022-12-05T04:44:12;101746.66;;;1.46;81.07
76553;BME280;65395;53.168;18.156;2022-12-05T04:46:45;101742.85;;;1.49;80.99
76553;BME280;65395;53.168;18.156;2022-12-05T04:49:20;101746.74;;;1.50;81.12
76553;BME280;65395;53.168;18.156;2022-12-05T04:51:52;101740.83;;;1.51;81.11
76553;BME280;65395;53.168;18.156;2022-12-05T04:54:27;101738.94;;;1.51;81.10
76553;BME280;65395;53.168;18.156;2022-12-05T04:57:01;101744.04;;;1.49;81.10
76553;BME280;65395;53.168;18.156;2022-12-05T04:59:31;101739.59;;;1.47;81.05
76553;BME280;65395;53.168;18.156;2022-12-05T05:02:04;101743.59;;;1.47;81.09
76553;BME280;65395;53.168;18.156;2022-12-05T05:04:37;101737.95;;;1.49;81.29
76553;BME280;65395;53.168;18.156;2022-12-05T05:07:09;101738.52;;;1.49;81.06
76553;BME280;65395;53.168;18.156;2022-12-05T05:09:37;101734.67;;;1.49;81.06
76553;BME280;65395;53.168;18.156;2022-12-05T05:12:05;101731.08;;;1.50;81.05
76553;BME280;65395;53.168;18.156;2022-12-05T05:14:31;101728.84;;;1.51;81.01
76553;BME280;65395;53.168;18.156;2022-12-05T05:16:58;101732.49;;;1.53;81.08
76553;BME280;65395;53.168;18.156;2022-12-05T05:19:25;101733.36;;;1.55;81.12
76553;BME280;65395;53.168;18.156;2022-12-05T05:21:52;101736.85;;;1.57;81.14
76553;BME280;65395;53.168;18.156;2022-12-05T05:24:19;101734.21;;;1.57;81.06
76553;BME280;65395;53.168;18.156;2022-12-05T05:26:47;101730.92;;;1.55;81.04
76553;BME280;65395;53.168;18.156;2022-12-05T05:29:16;101735.84;;;1.56;81.06
76553;BME280;65395;53.168;18.156;2022-12-05T05:31:43;101736.31;;;1.57;80.86
76553;BME280;65395;53.168;18.156;2022-12-05T05:34:11;101729.77;;;1.57;80.80
76553;BME280;65395;53.168;18.156;2022-12-05T05:36:38;101722.70;;;1.53;80.70
76553;BME280;65395;53.168;18.156;2022-12-05T05:39:05;101724.20;;;1.50;80.89
76553;BME280;65395;53.168;18.156;2022-12-05T05:41:36;101727.84;;;1.47;81.03
76553;BME280;65395;53.168;18.156;2022-12-05T05:44:03;101724.41;;;1.46;80.98
76553;BME280;65395;53.168;18.156;2022-12-05T05:46:33;101727.52;;;1.44;81.07
76553;BME280;65395;53.168;18.156;2022-12-05T05:49:00;101731.27;;;1.44;80.99
76553;BME280;65395;53.168;18.156;2022-12-05T05:51:27;101733.15;;;1.42;80.80
76553;BME280;65395;53.168;18.156;2022-12-05T05:53:56;101733.15;;;1.44;81.02
76553;BME280;65395;53.168;18.156;2022-12-05T05:56:23;101730.05;;;1.44;81.08
76553;BME280;65395;53.168;18.156;2022-12-05T05:58:56;101736.11;;;1.43;80.96
76553;BME280;65395;53.168;18.156;2022-12-05T06:01:23;101739.43;;;1.45;80.88
76553;BME280;65395;53.168;18.156;2022-12-05T06:03:50;101739.08;;;1.45;80.97
76553;BME280;65395;53.168;18.156;2022-12-05T06:06:18;101732.66;;;1.42;80.71
76553;BME280;65395;53.168;18.156;2022-12-05T06:08:45;101728.95;;;1.39;80.86
76553;BME280;65395;53.168;18.156;2022-12-05T06:11:14;101730.64;;;1.37;80.76
76553;BME280;65395;53.168;18.156;2022-12-05T06:13:41;101734.86;;;1.35;80.81
76553;BME280;65395;53.168;18.156;2022-12-05T06:16:10;101734.98;;;1.34;80.79
76553;BME280;65395;53.168;18.156;2022-12-05T06:18:37;101736.06;;;1.34;80.78
76553;BME280;65395;53.168;18.156;2022-12-05T06:21:05;101738.54;;;1.34;81.03
76553;BME280;65395;53.168;18.156;2022-12-05T06:23:35;101739.89;;;1.36;80.87
76553;BME280;65395;53.168;18.156;2022-12-05T06:26:04;101743.12;;;1.35;80.74
76553;BME280;65395;53.168;18.156;2022-12-05T06:28:31;101744.09;;;1.33;80.86
76553;BME280;65395;53.168;18.156;2022-12-05T06:30:58;101746.40;;;1.34;80.83
76553;BME280;65395;53.168;18.156;2022-12-05T06:33:27;101747.00;;;1.36;80.90
76553;BME280;65395;53.168;18.156;2022-12-05T06:36:02;101745.81;;;1.38;80.87
76553;BME280;65395;53.168;18.156;2022-12-05T06:38:29;101740.02;;;1.39;80.98
76553;BME280;65395;53.168;18.156;2022-12-05T06:40:56;101740.10;;;1.38;80.77
76553;BME280;65395;53.168;18.156;2022-12-05T06:43:23;101743.61;;;1.37;80.86
76553;BME280;65395;53.168;18.156;2022-12-05T06:45:50;101745.36;;;1.36;80.91
76553;BME280;65395;53.168;18.156;2022-12-05T06:48:17;101742.94;;;1.36;80.90
76553;BME280;65395;53.168;18.156;2022-12-05T06:50:50;101746.57;;;1.34;80.79
76553;BME280;65395;53.168;18.156;2022-12-05T06:53:18;101744.77;;;1.34;80.82
76553;BME280;65395;53.168;18.156;2022-12-05T06:55:57;101747.14;;;1.35;80.80
76553;BME280;65395;53.168;18.156;2022-12-05T06:58:24;101749.20;;;1.35;80.89
76553;BME280;65395;53.168;18.156;2022-12-05T07:00:51;101753.04;;;1.35;80.86
76553;BME280;65395;53.168;18.156;2022-12-05T07:03:28;101756.36;;;1.36;80.84
76553;BME280;65395;53.168;18.156;2022-12-05T07:05:59;101755.04;;;1.37;80.88
76553;BME280;65395;53.168;18.156;2022-12-05T07:08:26;101751.56;;;1.36;80.67
76553;BME280;65395;53.168;18.156;2022-12-05T07:10:52;101751.68;;;1.35;80.82
76553;BME280;65395;53.168;18.156;2022-12-05T07:13:19;101748.73;;;1.35;80.89
76553;BME280;65395;53.168;18.156;2022-12-05T07:15:46;101748.89;;;1.35;80.98
76553;BME280;65395;53.168;18.156;2022-12-05T07:18:14;101753.77;;;1.37;80.88
76553;BME280;65395;53.168;18.156;2022-12-05T07:20:42;101751.14;;;1.40;80.77
76553;BME280;65395;53.168;18.156;2022-12-05T07:23:10;101748.62;;;1.42;80.73
76553;BME280;65395;53.168;18.156;2022-12-05T07:25:39;101746.70;;;1.41;80.73
76553;BME280;65395;53.168;18.156;2022-12-05T07:28:07;101746.18;;;1.40;80.76
76553;BME280;65395;53.168;18.156;2022-12-05T07:30:34;101741.17;;;1.38;80.88
76553;BME280;65395;53.168;18.156;2022-12-05T07:33:01;101736.54;;;1.36;80.91
76553;BME280;65395;53.168;18.156;2022-12-05T07:35:27;101733.70;;;1.37;80.90
76553;BME280;65395;53.168;18.156;2022-12-05T07:37:54;101729.98;;;1.38;80.90
76553;BME280;65395;53.168;18.156;2022-12-05T07:40:21;101726.91;;;1.40;80.87
76553;BME280;65395;53.168;18.156;2022-12-05T07:42:48;101727.31;;;1.38;80.97
76553;BME280;65395;53.168;18.156;2022-12-05T07:45:15;101725.98;;;1.36;80.88
76553;BME280;65395;53.168;18.156;2022-12-05T07:47:43;101730.83;;;1.39;80.97
76553;BME280;65395;53.168;18.156;2022-12-05T07:50:10;101728.99;;;1.41;81.00
76553;BME280;65395;53.168;18.156;2022-12-05T07:52:37;101730.55;;;1.41;80.98
76553;BME280;65395;53.168;18.156;2022-12-05T07:55:04;101726.67;;;1.39;80.92
76553;BME280;65395;53.168;18.156;2022-12-05T07:57:31;101727.91;;;1.39;80.88
76553;BME280;65395;53.168;18.156;2022-12-05T07:59:57;101722.11;;;1.41;80.98
76553;BME280;65395;53.168;18.156;2022-12-05T08:02:24;101718.88;;;1.43;80.80
76553;BME280;65395;53.168;18.156;2022-12-05T08:04:51;101720.85;;;1.44;80.94
76553;BME280;65395;53.168;18.156;2022-12-05T08:07:18;101721.73;;;1.46;80.88
76553;BME280;65395;53.168;18.156;2022-12-05T08:09:45;101718.73;;;1.48;80.90
76553;BME280;65395;53.168;18.156;2022-12-05T08:12:11;101717.33;;;1.49;80.79
76553;BME280;65395;53.168;18.156;2022-12-05T08:14:38;101723.69;;;1.49;80.86
76553;BME280;65395;53.168;18.156;2022-12-05T08:17:05;101727.79;;;1.49;80.79
76553;BME280;65395;53.168;18.156;2022-12-05T08:19:31;101730.00;;;1.49;80.68
76553;BME280;65395;53.168;18.156;2022-12-05T08:21:58;101732.33;;;1.50;80.71
76553;BME280;65395;53.168;18.156;2022-12-05T08:24:25;101727.64;;;1.51;80.69
76553;BME280;65395;53.168;18.156;2022-12-05T08:26:52;101728.33;;;1.55;80.59
76553;BME280;65395;53.168;18.156;2022-12-05T08:29:20;101731.01;;;1.59;80.61
76553;BME280;65395;53.168;18.156;2022-12-05T08:31:49;101733.13;;;1.61;80.62
76553;BME280;65395;53.168;18.156;2022-12-05T08:34:18;101733.85;;;1.61;80.40
76553;BME280;65395;53.168;18.156;2022-12-05T08:36:45;101728.73;;;1.60;80.35
76553;BME280;65395;53.168;18.156;2022-12-05T08:39:15;101727.41;;;1.59;80.34
76553;BME280;65395;53.168;18.156;2022-12-05T08:41:44;101725.89;;;1.60;80.43
76553;BME280;65395;53.168;18.156;2022-12-05T08:44:12;101727.26;;;1.61;80.40
76553;BME280;65395;53.168;18.156;2022-12-05T08:46:44;101728.21;;;1.63;80.33
76553;BME280;65395;53.168;18.156;2022-12-05T08:49:11;101723.35;;;1.63;80.24
76553;BME280;65395;53.168;18.156;2022-12-05T08:51:39;101722.61;;;1.63;80.17
76553;BME280;65395;53.168;18.156;2022-12-05T08:54:07;101722.38;;;1.64;80.38
76553;BME280;65395;53.168;18.156;2022-12-05T08:56:35;101720.22;;;1.63;80.26
76553;BME280;65395;53.168;18.156;2022-12-05T08:59:04;101717.06;;;1.64;80.43
76553;BME280;65395;53.168;18.156;2022-12-05T09:01:32;101715.61;;;1.64;80.22
76553;BME280;65395;53.168;18.156;2022-12-05T09:04:00;101713.54;;;1.65;80.26
76553;BME280;65395;53.168;18.156;2022-12-05T09:06:28;101714.63;;;1.68;80.28
76553;BME280;65395;53.168;18.156;2022-12-05T09:08:58;101713.10;;;1.70;80.30
76553;BME280;65395;53.168;18.156;2022-12-05T09:11:28;101714.83;;;1.73;80.19
76553;BME280;65395;53.168;18.156;2022-12-05T09:13:57;101713.70;;;1.76;80.13
76553;BME280;65395;53.168;18.156;2022-12-05T09:16:28;101713.06;;;1.77;80.12
76553;BME280;65395;53.168;18.156;2022-12-05T09:18:55;101710.66;;;1.75;80.19
76553;BME280;65395;53.168;18.156;2022-12-05T09:21:24;101714.27;;;1.74;80.01
76553;BME280;65395;53.168;18.156;2022-12-05T09:23:51;101712.89;;;1.73;79.89
76553;BME280;65395;53.168;18.156;2022-12-05T09:26:22;101712.45;;;1.73;79.77
76553;BME280;65395;53.168;18.156;2022-12-05T09:28:51;101710.98;;;1.74;79.74
76553;BME280;65395;53.168;18.156;2022-12-05T09:31:20;101709.70;;;1.75;79.85
76553;BME280;65395;53.168;18.156;2022-12-05T09:33:49;101706.98;;;1.77;79.98
76553;BME280;65395;53.168;18.156;2022-12-05T09:36:20;101709.81;;;1.78;79.91
76553;BME280;65395;53.168;18.156;2022-12-05T09:38:48;101710.38;;;1.77;79.93
76553;BME280;65395;53.168;18.156;2022-12-05T09:47:33;101710.54;;;1.81;80.06
76553;BME280;65395;53.168;18.156;2022-12-05T09:50:13;101703.14;;;1.86;79.87
76553;BME280;65395;53.168;18.156;2022-12-05T09:53:05;101698.10;;;1.90;79.82
76553;BME280;65395;53.168;18.156;2022-12-05T09:55:44;101690.44;;;1.95;79.50
76553;BME280;65395;53.168;18.156;2022-12-05T09:58:21;101687.68;;;1.98;79.70
76553;BME280;65395;53.168;18.156;2022-12-05T10:00:56;101684.39;;;1.99;79.57
76553;BME280;65395;53.168;18.156;2022-12-05T10:03:40;101689.19;;;2.02;79.48
76553;BME280;65395;53.168;18.156;2022-12-05T10:06:20;101684.92;;;2.04;79.51
76553;BME280;65395;53.168;18.156;2022-12-05T10:11:40;101687.36;;;2.04;79.38
76553;BME280;65395;53.168;18.156;2022-12-05T10:14:23;101687.27;;;2.05;79.25
76553;BME280;65395;53.168;18.156;2022-12-05T10:16:55;101689.30;;;2.06;79.25
76553;BME280;65395;53.168;18.156;2022-12-05T10:19:31;101687.77;;;2.09;79.31
76553;BME280;65395;53.168;18.156;2022-12-05T10:22:03;101682.01;;;2.14;79.39
76553;BME280;65395;53.168;18.156;2022-12-05T10:24:39;101676.63;;;2.18;79.10
76553;BME280;65395;53.168;18.156;2022-12-05T10:27:15;101672.19;;;2.19;79.14
76553;BME280;65395;53.168;18.156;2022-12-05T10:29:52;101671.71;;;2.17;79.35
76553;BME280;65395;53.168;18.156;2022-12-05T10:32:31;101670.11;;;2.16;79.13
76553;BME280;65395;53.168;18.156;2022-12-05T10:37:38;101659.36;;;2.15;79.57
76553;BME280;65395;53.168;18.156;2022-12-05T10:40:10;101661.09;;;2.11;79.47
76553;BME280;65395;53.168;18.156;2022-12-05T10:42:37;101669.37;;;2.09;79.57
76553;BME280;65395;53.168;18.156;2022-12-05T10:45:06;101662.93;;;2.09;79.39
76553;BME280;65395;53.168;18.156;2022-12-05T10:47:34;101658.97;;;2.08;79.32
76553;BME280;65395;53.168;18.156;2022-12-05T10:50:07;101658.89;;;2.07;79.44
76553;BME280;65395;53.168;18.156;2022-12-05T10:52:42;101650.12;;;2.09;79.53
76553;BME280;65395;53.168;18.156;2022-12-05T10:55:15;101642.67;;;2.10;79.47
76553;BME280;65395;53.168;18.156;2022-12-05T10:57:49;101634.02;;;2.11;79.47
76553;BME280;65395;53.168;18.156;2022-12-05T11:00:20;101632.84;;;2.12;79.53
76553;BME280;65395;53.168;18.156;2022-12-05T11:02:48;101633.33;;;2.13;79.56
76553;BME280;65395;53.168;18.156;2022-12-05T11:05:25;101632.41;;;2.13;79.47
76553;BME280;65395;53.168;18.156;2022-12-05T11:07:52;101633.75;;;2.15;79.35
76553;BME280;65395;53.168;18.156;2022-12-05T11:10:34;101628.11;;;2.14;79.26
76553;BME280;65395;53.168;18.156;2022-12-05T11:13:15;101626.98;;;2.16;79.25
76553;BME280;65395;53.168;18.156;2022-12-05T11:15:45;101630.98;;;2.16;79.07
76553;BME280;65395;53.168;18.156;2022-12-05T11:20:56;101627.77;;;2.10;79.22
76553;BME280;65395;53.168;18.156;2022-12-05T11:23:33;101630.57;;;2.09;79.27
76553;BME280;65395;53.168;18.156;2022-12-05T11:26:00;101628.21;;;2.07;79.31
76553;BME280;65395;53.168;18.156;2022-12-05T11:28:33;101625.77;;;2.07;79.32
76553;BME280;65395;53.168;18.156;2022-12-05T11:34:03;101611.02;;;2.07;79.14
76553;BME280;65395;53.168;18.156;2022-12-05T11:36:39;101608.73;;;2.09;79.12
76553;BME280;65395;53.168;18.156;2022-12-05T11:39:09;101613.15;;;2.13;79.10
76553;BME280;65395;53.168;18.156;2022-12-05T11:41:57;101613.14;;;2.16;79.03
76553;BME280;65395;53.168;18.156;2022-12-05T11:44:43;101611.81;;;2.19;79.08
76553;BME280;65395;53.168;18.156;2022-12-05T11:47:39;101611.01;;;2.17;78.95
76553;BME280;65395;53.168;18.156;2022-12-05T11:53:14;101599.20;;;2.17;79.00
76553;BME280;65395;53.168;18.156;2022-12-05T11:56:06;101592.94;;;2.16;78.90
76553;BME280;65395;53.168;18.156;2022-12-05T11:58:59;101589.98;;;2.12;78.98
76553;BME280;65395;53.168;18.156;2022-12-05T12:01:45;101584.95;;;2.09;79.12
76553;BME280;65395;53.168;18.156;2022-12-05T12:07:19;101583.69;;;2.15;78.88
76553;BME280;65395;53.168;18.156;2022-12-05T12:10:13;101582.39;;;2.20;78.99
76553;BME280;65395;53.168;18.156;2022-12-05T12:12:58;101577.89;;;2.29;79.01
76553;BME280;65395;53.168;18.156;2022-12-05T12:15:41;101570.82;;;2.36;78.88
76553;BME280;65395;53.168;18.156;2022-12-05T12:18:34;101568.48;;;2.41;78.78
76553;BME280;65395;53.168;18.156;2022-12-05T12:21:17;101561.98;;;2.43;78.62
76553;BME280;65395;53.168;18.156;2022-12-05T12:24:01;101558.45;;;2.44;78.67
76553;BME280;65395;53.168;18.156;2022-12-05T12:26:56;101551.34;;;2.46;78.55
76553;BME280;65395;53.168;18.156;2022-12-05T12:40:53;101520.91;;;2.44;78.44
76553;BME280;65395;53.168;18.156;2022-12-05T12:46:17;101516.58;;;2.45;78.56
76553;BME280;65395;53.168;18.156;2022-12-05T12:51:50;101516.60;;;2.47;78.42
76553;BME280;65395;53.168;18.156;2022-12-05T12:54:35;101519.48;;;2.49;78.40
76553;BME280;65395;53.168;18.156;2022-12-05T12:57:19;101519.60;;;2.48;78.45
76553;BME280;65395;53.168;18.156;2022-12-05T13:00:19;101508.86;;;2.43;78.45
76553;BME280;65395;53.168;18.156;2022-12-05T13:02:50;101514.89;;;2.41;78.40
76553;BME280;65395;53.168;18.156;2022-12-05T13:05:31;101517.09;;;2.39;78.42
76553;BME280;65395;53.168;18.156;2022-12-05T13:08:10;101518.02;;;2.38;78.56
76553;BME280;65395;53.168;18.156;2022-12-05T13:10:43;101516.05;;;2.39;78.52
76553;BME280;65395;53.168;18.156;2022-12-05T13:13:17;101512.62;;;2.42;78.51
76553;BME280;65395;53.168;18.156;2022-12-05T13:15:49;101515.67;;;2.44;78.46
76553;BME280;65395;53.168;18.156;2022-12-05T13:18:20;101520.30;;;2.46;78.52
76553;BME280;65395;53.168;18.156;2022-12-05T13:20:51;101520.45;;;2.46;78.41
76553;BME280;65395;53.168;18.156;2022-12-05T13:23:23;101517.83;;;2.45;78.28
76553;BME280;65395;53.168;18.156;2022-12-05T13:25:53;101517.45;;;2.46;78.37
76553;BME280;65395;53.168;18.156;2022-12-05T13:28:32;101520.15;;;2.45;78.35
76553;BME280;65395;53.168;18.156;2022-12-05T13:31:00;101519.96;;;2.42;78.35
76553;BME280;65395;53.168;18.156;2022-12-05T13:33:33;101519.64;;;2.40;78.45
76553;BME280;65395;53.168;18.156;2022-12-05T13:36:05;101521.19;;;2.39;78.50
76553;BME280;65395;53.168;18.156;2022-12-05T13:38:43;101517.73;;;2.39;78.35
76553;BME280;65395;53.168;18.156;2022-12-05T13:41:19;101517.27;;;2.37;78.53
76553;BME280;65395;53.168;18.156;2022-12-05T13:43:56;101519.95;;;2.37;78.48
76553;BME280;65395;53.168;18.156;2022-12-05T13:46:32;101513.61;;;2.32;78.57
76553;BME280;65395;53.168;18.156;2022-12-05T13:49:13;101517.31;;;2.37;78.64
76553;BME280;65395;53.168;18.156;2022-12-05T13:51:43;101509.89;;;2.38;78.51
76553;BME280;65395;53.168;18.156;2022-12-05T13:54:15;101505.15;;;2.36;78.57
76553;BME280;65395;53.168;18.156;2022-12-05T13:56:55;101507.91;;;2.29;78.60
76553;BME280;65395;53.168;18.156;2022-12-05T14:04:57;101492.62;;;2.23;78.65
76553;BME280;65395;53.168;18.156;2022-12-05T14:07:35;101497.85;;;2.23;78.62
76553;BME280;65395;53.168;18.156;2022-12-05T14:10:03;101495.06;;;2.23;78.61
76553;BME280;65395;53.168;18.156;2022-12-05T14:12:42;101490.56;;;2.24;78.72
76553;BME280;65395;53.168;18.156;2022-12-05T14:15:32;101487.27;;;2.28;78.81
76553;BME280;65395;53.168;18.156;2022-12-05T14:21:00;101479.17;;;2.30;78.68
76553;BME280;65395;53.168;18.156;2022-12-05T14:26:33;101484.77;;;2.24;78.83